createdAt,value
2023-04-29T00:00:30.297Z,5.97
2023-04-29T00:02:59.176Z,6.27
2023-04-29T00:05:28.386Z,5.47
2023-04-29T00:07:58.074Z,5.03
2023-04-29T00:10:26.963Z,5.10
2023-04-29T00:12:55.769Z,5.57
2023-04-29T00:15:25.831Z,5.90
2023-04-29T00:17:54.696Z,5.57
2023-04-29T00:20:24.190Z,5.47
2023-04-29T00:22:52.859Z,5.33
2023-04-29T00:25:21.513Z,4.90
2023-04-29T00:27:50.328Z,4.60
2023-04-29T00:30:19.206Z,4.77
2023-04-29T00:32:49.882Z,4.90
2023-04-29T00:35:19.077Z,4.90
2023-04-29T00:37:47.888Z,5.03
2023-04-29T00:40:17.549Z,4.77
2023-04-29T00:42:46.322Z,4.50
2023-04-29T00:45:15.044Z,5.03
2023-04-29T00:47:43.742Z,4.77
2023-04-29T00:50:14.132Z,4.33
2023-04-29T00:52:44.595Z,5.00
2023-04-29T00:55:14.549Z,5.00
2023-04-29T00:57:43.273Z,4.80
2023-04-29T01:00:14.001Z,4.60
2023-04-29T01:02:42.986Z,4.63
2023-04-29T01:05:13.361Z,4.50
2023-04-29T01:07:58.579Z,4.50
2023-04-29T01:10:33.781Z,4.67
2023-04-29T01:13:15.582Z,4.60
2023-04-29T01:16:00.105Z,5.07
2023-04-29T01:18:35.772Z,5.00
2023-04-29T01:21:06.712Z,5.00
2023-04-29T01:23:38.272Z,5.00
2023-04-29T01:26:08.329Z,5.27
2023-04-29T01:29:11.112Z,5.20
2023-04-29T01:31:52.540Z,5.40
2023-04-29T01:34:32.490Z,5.60
2023-04-29T01:37:11.620Z,5.70
2023-04-29T01:39:59.667Z,5.67
2023-04-29T01:42:40.484Z,6.30
2023-04-29T01:45:18.584Z,6.00
2023-04-29T01:47:49.026Z,6.37
2023-04-29T01:50:18.408Z,6.93
2023-04-29T01:52:47.084Z,6.30
2023-04-29T01:55:17.399Z,7.00
2023-04-29T01:58:08.732Z,7.87
2023-04-29T02:00:52.647Z,7.90
2023-04-29T02:03:21.620Z,9.33
2023-04-29T02:05:54.116Z,8.47
2023-04-29T02:08:23.321Z,10.17
2023-04-29T02:11:00.549Z,11.47
2023-04-29T02:13:59.564Z,9.57
2023-04-29T02:16:29.493Z,11.20
2023-04-29T02:19:04.814Z,13.17
2023-04-29T02:21:35.274Z,12.47
2023-04-29T02:24:04.471Z,10.30
2023-04-29T02:26:35.559Z,12.47
2023-04-29T02:29:04.207Z,10.10
2023-04-29T02:31:33.373Z,10.57
2023-04-29T02:34:02.167Z,9.33
2023-04-29T02:36:31.660Z,10.60
2023-04-29T02:39:01.745Z,10.97
2023-04-29T02:41:30.599Z,10.50
2023-04-29T02:44:00.880Z,10.40
2023-04-29T02:46:29.585Z,9.23
2023-04-29T02:48:58.487Z,11.50
2023-04-29T02:51:27.965Z,10.77
2023-04-29T02:53:56.663Z,12.20
2023-04-29T02:56:25.357Z,13.23
2023-04-29T02:58:54.043Z,13.53
2023-04-29T03:01:24.406Z,8.13
2023-04-29T03:03:54.252Z,9.00
2023-04-29T03:06:23.064Z,9.60
2023-04-29T03:08:53.886Z,7.27
2023-04-29T03:11:24.882Z,8.53
2023-04-29T03:13:54.247Z,12.77
2023-04-29T03:16:25.570Z,7.13
2023-04-29T03:18:54.575Z,7.17
2023-04-29T03:21:23.366Z,7.87
2023-04-29T03:23:52.123Z,6.60
2023-04-29T03:26:26.838Z,6.63
2023-04-29T03:28:55.652Z,6.57
2023-04-29T03:31:27.554Z,7.13
2023-04-29T03:33:56.828Z,6.50
2023-04-29T03:36:26.629Z,6.33
2023-04-29T03:39:05.408Z,7.20
2023-04-29T03:41:34.765Z,5.90
2023-04-29T03:44:04.194Z,6.40
2023-04-29T03:46:34.482Z,7.83
2023-04-29T03:49:04.141Z,5.63
2023-04-29T03:51:33.069Z,5.47
2023-04-29T03:54:10.906Z,4.93
2023-04-29T03:56:40.015Z,5.20
2023-04-29T03:59:08.945Z,6.07
2023-04-29T04:01:40.662Z,5.17
2023-04-29T04:04:09.603Z,6.50
2023-04-29T04:06:44.086Z,4.57
2023-04-29T04:09:14.293Z,4.23
2023-04-29T04:11:43.607Z,4.40
2023-04-29T04:14:12.713Z,4.50
2023-04-29T04:16:44.081Z,4.50
2023-04-29T04:19:14.301Z,3.67
2023-04-29T04:21:46.380Z,4.27
2023-04-29T04:24:16.153Z,4.60
2023-04-29T04:26:45.710Z,4.33
2023-04-29T04:29:29.746Z,4.50
2023-04-29T04:32:09.147Z,4.73
2023-04-29T04:34:46.796Z,4.13
2023-04-29T04:37:16.673Z,4.20
2023-04-29T04:39:51.505Z,4.10
2023-04-29T04:42:20.757Z,4.27
2023-04-29T04:44:51.573Z,4.77
2023-04-29T04:47:32.718Z,4.53
2023-04-29T04:50:10.329Z,4.33
2023-04-29T04:52:40.042Z,3.57
2023-04-29T04:55:22.511Z,4.00
2023-04-29T04:57:53.102Z,4.70
2023-04-29T05:00:22.253Z,4.80
2023-04-29T05:02:52.748Z,4.30
2023-04-29T05:05:21.666Z,5.07
2023-04-29T05:07:50.497Z,17.77
2023-04-29T05:10:26.593Z,5.83
2023-04-29T05:13:02.025Z,6.37
2023-04-29T05:15:31.560Z,6.50
2023-04-29T05:18:05.662Z,7.10
2023-04-29T05:20:38.794Z,6.80
2023-04-29T05:23:07.766Z,7.10
2023-04-29T05:25:42.872Z,7.57
2023-04-29T05:28:14.471Z,8.50
2023-04-29T05:33:48.401Z,11.60
2023-04-29T05:36:17.476Z,93.13
2023-04-29T05:38:46.451Z,46.37
2023-04-29T05:41:36.290Z,80.70
2023-04-29T05:44:15.568Z,50.00
2023-04-29T05:46:44.834Z,28.03
2023-04-29T05:49:16.076Z,26.13
2023-04-29T05:51:44.847Z,28.23
2023-04-29T05:54:14.631Z,27.67
2023-04-29T05:56:43.874Z,35.77
2023-04-29T05:59:12.745Z,38.63
2023-04-29T06:01:44.652Z,32.67
2023-04-29T06:04:15.670Z,20.87
2023-04-29T06:07:02.666Z,21.80
2023-04-29T06:09:58.792Z,21.27
2023-04-29T06:12:29.389Z,18.03
2023-04-29T06:14:59.841Z,17.43
2023-04-29T06:17:32.900Z,17.53
2023-04-29T06:20:03.735Z,17.37
2023-04-29T06:22:38.705Z,17.37
2023-04-29T06:25:08.485Z,17.30
2023-04-29T06:27:47.297Z,15.90
2023-04-29T06:30:17.641Z,16.67
2023-04-29T06:32:47.261Z,17.10
2023-04-29T06:35:24.886Z,15.80
2023-04-29T06:38:29.271Z,15.47
2023-04-29T06:41:08.156Z,15.70
2023-04-29T06:43:55.249Z,15.00
2023-04-29T06:46:40.434Z,14.57
2023-04-29T06:49:15.387Z,16.47
2023-04-29T06:51:45.532Z,14.97
2023-04-29T06:54:15.129Z,15.23
2023-04-29T06:56:43.826Z,15.67
2023-04-29T06:59:12.696Z,16.13
2023-04-29T07:01:44.301Z,15.30
2023-04-29T07:04:14.007Z,15.27
2023-04-29T07:06:47.058Z,14.60
2023-04-29T07:09:16.059Z,14.00
2023-04-29T07:11:45.419Z,12.50
2023-04-29T07:14:14.266Z,13.63
2023-04-29T07:16:43.276Z,13.20
2023-04-29T07:19:12.737Z,13.43
2023-04-29T07:21:42.236Z,12.27
2023-04-29T07:24:12.391Z,12.17
2023-04-29T07:26:41.761Z,11.77
2023-04-29T07:29:10.963Z,11.53
2023-04-29T07:31:39.744Z,8.60
2023-04-29T07:34:08.438Z,7.43
2023-04-29T07:36:37.320Z,6.80
2023-04-29T07:39:06.212Z,6.73
2023-04-29T07:41:36.654Z,6.50
2023-04-29T07:44:08.132Z,7.63
2023-04-29T07:46:37.940Z,6.67
2023-04-29T07:49:06.963Z,6.77
2023-04-29T07:51:35.699Z,7.30
2023-04-29T07:54:04.795Z,8.90
2023-04-29T07:56:35.248Z,9.27
2023-04-29T07:59:04.161Z,8.67
2023-04-29T08:01:33.131Z,10.00
2023-04-29T08:04:02.923Z,9.67
2023-04-29T08:06:35.913Z,10.03
2023-04-29T08:09:05.193Z,9.63
2023-04-29T08:11:36.871Z,9.80
2023-04-29T08:14:06.592Z,10.97
2023-04-29T08:16:35.958Z,11.20
2023-04-29T08:19:04.871Z,12.97
2023-04-29T08:21:34.827Z,12.87
2023-04-29T08:24:03.778Z,12.83
2023-04-29T08:26:32.664Z,12.80
2023-04-29T08:29:03.090Z,13.97
2023-04-29T08:31:32.369Z,13.30
2023-04-29T08:34:03.096Z,13.27
2023-04-29T08:36:32.673Z,13.27
2023-04-29T08:39:03.934Z,12.97
2023-04-29T08:41:34.455Z,12.17
2023-04-29T08:44:04.797Z,11.93
2023-04-29T08:46:35.283Z,13.10
2023-04-29T08:49:05.925Z,13.30
2023-04-29T08:51:35.797Z,12.70
2023-04-29T08:54:07.692Z,14.20
2023-04-29T08:56:40.962Z,12.23
2023-04-29T08:59:20.488Z,11.53
2023-04-29T09:01:54.973Z,11.80
2023-04-29T09:04:39.207Z,11.87
2023-04-29T09:07:12.630Z,11.23
2023-04-29T09:10:26.054Z,11.23
2023-04-29T09:13:02.983Z,11.53
2023-04-29T09:15:41.778Z,10.83
2023-04-29T09:18:10.750Z,11.00
2023-04-29T09:20:39.755Z,9.33
2023-04-29T09:23:08.815Z,9.20
2023-04-29T09:25:37.902Z,9.60
2023-04-29T09:28:18.055Z,8.77
2023-04-29T09:30:51.866Z,8.30
2023-04-29T09:33:20.818Z,7.77
2023-04-29T09:35:52.090Z,7.00
2023-04-29T09:38:24.767Z,7.77
2023-04-29T09:40:59.678Z,8.30
2023-04-29T09:43:35.333Z,8.63
2023-04-29T09:46:23.196Z,8.53
2023-04-29T09:48:52.349Z,10.40
2023-04-29T09:51:21.211Z,10.37
2023-04-29T09:53:50.072Z,12.00
2023-04-29T09:56:19.137Z,10.93
2023-04-29T09:58:48.131Z,10.00
2023-04-29T10:01:20.978Z,9.27
2023-04-29T10:03:51.393Z,8.93
2023-04-29T10:06:20.444Z,9.57
2023-04-29T10:08:50.944Z,9.57
2023-04-29T10:11:20.222Z,9.50
2023-04-29T10:13:52.874Z,10.47
2023-04-29T10:16:31.328Z,9.97
2023-04-29T10:19:08.782Z,10.30
2023-04-29T10:21:38.238Z,10.17
2023-04-29T10:24:10.931Z,10.73
2023-04-29T10:26:43.320Z,10.80
2023-04-29T10:31:57.261Z,10.93
2023-04-29T10:34:27.709Z,11.70
2023-04-29T10:36:56.617Z,11.33
2023-04-29T10:39:45.329Z,12.20
2023-04-29T10:42:30.213Z,10.80
2023-04-29T10:45:27.211Z,10.50
2023-04-29T10:48:18.979Z,10.53
2023-04-29T10:51:12.374Z,11.63
2023-04-29T10:54:03.983Z,11.67
2023-04-29T10:58:07.547Z,10.70
2023-04-29T11:00:39.095Z,11.43
2023-04-29T11:03:08.295Z,11.40
2023-04-29T11:05:39.046Z,11.43
2023-04-29T11:08:16.623Z,11.80
2023-04-29T11:10:51.286Z,12.43
2023-04-29T11:13:25.829Z,11.97
2023-04-29T11:15:55.983Z,12.27
2023-04-29T11:18:26.258Z,12.80
2023-04-29T11:21:16.005Z,12.53
2023-04-29T11:23:45.684Z,10.90
2023-04-29T11:26:14.626Z,10.70
2023-04-29T11:28:45.164Z,10.03
2023-04-29T11:31:14.117Z,10.17
2023-04-29T11:33:42.855Z,10.20
2023-04-29T11:36:13.277Z,15.53
2023-04-29T11:38:43.650Z,12.97
2023-04-29T11:41:14.682Z,10.50
2023-04-29T11:43:44.136Z,10.07
2023-04-29T11:46:15.226Z,10.00
2023-04-29T11:48:50.983Z,10.80
2023-04-29T11:51:21.030Z,10.00
2023-04-29T11:53:53.091Z,8.57
2023-04-29T11:56:25.683Z,9.10
2023-04-29T11:59:01.375Z,8.83
2023-04-29T12:01:31.548Z,8.27
2023-04-29T12:04:01.083Z,8.03
2023-04-29T12:06:31.789Z,8.40
2023-04-29T12:09:04.569Z,9.20
2023-04-29T12:11:33.337Z,8.43
2023-04-29T12:14:06.165Z,8.40
2023-04-29T12:16:36.332Z,8.63
2023-04-29T12:19:05.517Z,9.23
2023-04-29T12:21:36.768Z,9.53
2023-04-29T12:24:08.261Z,9.93
2023-04-29T12:26:41.521Z,9.60
2023-04-29T12:29:12.377Z,9.43
2023-04-29T12:31:41.863Z,9.70
2023-04-29T12:34:10.713Z,9.57
2023-04-29T12:36:39.350Z,9.23
2023-04-29T12:39:11.834Z,9.07
2023-04-29T12:41:43.342Z,10.90
2023-04-29T12:44:12.460Z,8.53
2023-04-29T12:46:43.028Z,8.47
2023-04-29T12:49:13.004Z,7.70
2023-04-29T12:51:42.216Z,8.00
2023-04-29T12:54:12.491Z,10.10
2023-04-29T12:56:41.817Z,10.53
2023-04-29T12:59:13.517Z,11.60
2023-04-29T13:01:42.265Z,10.70
2023-04-29T13:04:12.182Z,11.17
2023-04-29T13:06:41.898Z,10.50
2023-04-29T13:09:17.927Z,10.80
2023-04-29T13:11:48.004Z,10.57
2023-04-29T13:14:16.881Z,10.63
2023-04-29T13:16:46.252Z,11.17
2023-04-29T13:19:30.468Z,11.67
2023-04-29T13:22:04.787Z,13.27
2023-04-29T13:24:36.795Z,13.23
2023-04-29T13:27:05.985Z,13.80
2023-04-29T13:29:35.721Z,15.73
2023-04-29T13:32:05.119Z,15.70
2023-04-29T13:34:33.976Z,15.83
2023-04-29T13:37:02.865Z,17.00
2023-04-29T13:39:31.976Z,21.87
2023-04-29T13:42:02.156Z,15.40
2023-04-29T13:44:42.361Z,15.23
2023-04-29T13:47:25.145Z,16.13
2023-04-29T13:50:22.749Z,16.53
2023-04-29T13:56:03.669Z,18.77
2023-04-29T14:03:15.007Z,16.90
2023-04-29T14:05:44.560Z,15.97
2023-04-29T14:08:14.164Z,15.67
2023-04-29T14:10:42.830Z,14.67
2023-04-29T14:13:13.117Z,14.97
2023-04-29T14:15:42.300Z,13.77
2023-04-29T14:18:12.153Z,14.23
2023-04-29T14:20:41.168Z,14.40
2023-04-29T14:23:12.158Z,14.93
2023-04-29T14:25:41.172Z,14.43
2023-04-29T14:28:09.845Z,14.20
2023-04-29T14:30:41.183Z,14.07
2023-04-29T14:33:11.672Z,13.37
2023-04-29T14:35:41.219Z,13.73
2023-04-29T14:38:09.899Z,14.90
2023-04-29T14:40:39.225Z,15.77
2023-04-29T14:43:08.000Z,15.00
2023-04-29T14:45:37.708Z,15.73
2023-04-29T14:48:08.034Z,14.93
2023-04-29T14:50:37.052Z,14.30
2023-04-29T14:53:15.352Z,14.63
2023-04-29T14:55:44.451Z,15.80
2023-04-29T14:58:13.178Z,15.10
2023-04-29T15:00:41.876Z,14.83
2023-04-29T15:03:21.545Z,15.40
2023-04-29T15:06:13.122Z,15.07
2023-04-29T15:08:42.072Z,14.60
2023-04-29T15:11:10.708Z,14.93
2023-04-29T15:13:39.692Z,14.17
2023-04-29T15:16:09.078Z,14.73
2023-04-29T15:18:40.834Z,14.67
2023-04-29T15:21:11.444Z,15.10
2023-04-29T15:23:40.987Z,14.10
2023-04-29T15:26:10.603Z,13.93
2023-04-29T15:28:39.750Z,15.77
2023-04-29T15:31:08.431Z,18.10
2023-04-29T15:33:38.731Z,13.00
2023-04-29T15:36:09.289Z,13.47
2023-04-29T15:38:38.257Z,13.00
2023-04-29T15:41:07.153Z,13.50
2023-04-29T15:43:35.905Z,13.73
2023-04-29T15:46:04.974Z,14.17
2023-04-29T15:48:33.769Z,13.60
2023-04-29T15:51:04.037Z,13.53
2023-04-29T15:53:32.959Z,13.87
2023-04-29T15:56:01.746Z,13.77
2023-04-29T15:58:30.679Z,14.13
2023-04-29T16:00:59.387Z,15.03
2023-04-29T16:03:29.477Z,14.53
2023-04-29T16:05:58.471Z,15.00
2023-04-29T16:08:28.617Z,14.67
2023-04-29T16:10:57.274Z,13.57
2023-04-29T16:13:26.165Z,14.90
2023-04-29T16:15:56.710Z,14.80
2023-04-29T16:18:25.733Z,13.90
2023-04-29T16:20:54.538Z,15.20
2023-04-29T16:23:23.236Z,14.73
2023-04-29T16:25:54.551Z,15.07
2023-04-29T16:28:24.307Z,14.57
2023-04-29T16:30:53.437Z,13.70
2023-04-29T16:33:22.069Z,16.53
2023-04-29T16:35:51.429Z,15.53
2023-04-29T16:38:20.174Z,15.10
2023-04-29T16:40:50.657Z,14.47
2023-04-29T16:43:21.244Z,14.33
2023-04-29T16:45:51.334Z,16.30
2023-04-29T16:48:20.525Z,14.47
2023-04-29T16:50:50.830Z,12.80
2023-04-29T16:53:19.730Z,13.33
2023-04-29T16:55:48.517Z,13.33
2023-04-29T16:58:17.692Z,13.27
2023-04-29T17:00:48.598Z,17.43
2023-04-29T17:03:17.568Z,14.90
2023-04-29T17:05:46.457Z,13.73
2023-04-29T17:08:15.510Z,13.30
2023-04-29T17:10:44.919Z,13.90
2023-04-29T17:13:13.692Z,13.80
2023-04-29T17:15:42.437Z,12.70
2023-04-29T17:18:12.831Z,13.13
2023-04-29T17:20:42.307Z,15.00
2023-04-29T17:23:10.950Z,13.17
2023-04-29T17:25:39.763Z,12.50
2023-04-29T17:28:08.952Z,12.73
2023-04-29T17:30:37.904Z,14.50
2023-04-29T17:33:06.747Z,13.93
2023-04-29T17:35:37.432Z,12.77
2023-04-29T17:38:08.490Z,13.17
2023-04-29T17:40:37.765Z,12.37
2023-04-29T17:43:06.603Z,13.47
2023-04-29T17:45:36.061Z,13.13
2023-04-29T17:48:06.878Z,13.80
2023-04-29T17:50:45.512Z,13.40
2023-04-29T17:53:16.971Z,14.63
2023-04-29T17:55:46.395Z,13.60
2023-04-29T17:58:15.705Z,13.40
2023-04-29T18:00:46.626Z,14.03
2023-04-29T18:03:15.975Z,13.13
2023-04-29T18:05:47.654Z,13.20
2023-04-29T18:08:16.688Z,13.10
2023-04-29T18:10:45.681Z,11.73
2023-04-29T18:13:14.993Z,13.60
2023-04-29T18:15:44.691Z,12.93
2023-04-29T18:18:13.620Z,12.50
2023-04-29T18:20:46.201Z,12.67
2023-04-29T18:23:15.177Z,12.67
2023-04-29T18:25:44.516Z,12.73
2023-04-29T18:28:23.553Z,12.10
2023-04-29T18:30:53.733Z,11.97
2023-04-29T18:33:23.362Z,12.43
2023-04-29T18:35:54.424Z,12.50
2023-04-29T18:38:23.221Z,11.50
2023-04-29T18:40:52.425Z,12.23
2023-04-29T18:43:24.821Z,12.27
2023-04-29T18:45:54.507Z,12.07
2023-04-29T18:48:23.912Z,11.53
2023-04-29T18:50:54.923Z,11.57
2023-04-29T18:53:24.110Z,11.90
2023-04-29T18:55:53.514Z,11.80
2023-04-29T18:58:28.936Z,12.03
2023-04-29T19:01:00.108Z,12.30
2023-04-29T19:03:31.725Z,11.40
2023-04-29T19:06:05.351Z,11.73
2023-04-29T19:08:34.637Z,12.10
2023-04-29T19:11:04.491Z,11.87
2023-04-29T19:13:33.535Z,13.47
2023-04-29T19:16:02.557Z,12.20
2023-04-29T19:18:31.522Z,12.73
2023-04-29T19:21:08.396Z,13.00
2023-04-29T19:23:47.806Z,12.87
2023-04-29T19:26:16.874Z,12.40
2023-04-29T19:28:47.500Z,12.87
2023-04-29T19:31:18.932Z,13.00
2023-04-29T19:33:48.399Z,12.77
2023-04-29T19:36:20.992Z,13.50
2023-04-29T19:38:50.174Z,13.23
2023-04-29T19:41:20.983Z,14.00
2023-04-29T19:43:49.847Z,14.17
2023-04-29T19:46:18.808Z,14.93
2023-04-29T19:48:47.980Z,13.93
2023-04-29T19:51:16.833Z,14.17
2023-04-29T19:53:47.128Z,13.67
2023-04-29T19:56:17.312Z,13.77
2023-04-29T19:58:46.498Z,17.47
2023-04-29T20:01:15.827Z,14.70
2023-04-29T20:03:44.824Z,18.10
2023-04-29T20:06:13.794Z,15.07
2023-04-29T20:08:42.569Z,14.80
2023-04-29T20:11:13.631Z,13.90
2023-04-29T20:13:42.507Z,13.17
2023-04-29T20:16:11.681Z,13.37
2023-04-29T20:18:41.045Z,13.27
2023-04-29T20:21:09.832Z,12.80
2023-04-29T20:23:40.254Z,13.90
2023-04-29T20:26:09.014Z,12.43
2023-04-29T20:28:40.075Z,12.70
2023-04-29T20:31:09.134Z,13.57
2023-04-29T20:33:37.940Z,12.57
2023-04-29T20:36:08.014Z,13.40
2023-04-29T20:38:37.002Z,12.97
2023-04-29T20:41:06.799Z,12.93
2023-04-29T20:43:35.868Z,12.60
2023-04-29T20:46:06.019Z,12.97
2023-04-29T20:48:35.014Z,12.20
2023-04-29T20:51:03.707Z,13.60
2023-04-29T20:53:32.509Z,13.20
2023-04-29T20:56:01.202Z,12.80
2023-04-29T20:58:30.403Z,13.20
2023-04-29T21:00:59.391Z,12.30
2023-04-29T21:03:29.802Z,13.73
2023-04-29T21:05:58.619Z,12.47
2023-04-29T21:08:27.656Z,13.33
2023-04-29T21:10:56.368Z,13.27
2023-04-29T21:13:25.199Z,13.03
2023-04-29T21:15:53.990Z,12.80
2023-04-29T21:18:22.919Z,12.70
2023-04-29T21:20:53.071Z,13.47
2023-04-29T21:23:22.777Z,13.40
2023-04-29T21:25:51.593Z,13.03
2023-04-29T21:28:20.491Z,12.93
2023-04-29T21:30:49.128Z,12.60
2023-04-29T21:33:18.021Z,13.07
2023-04-29T21:35:50.221Z,13.07
2023-04-29T21:38:20.811Z,13.37
2023-04-29T21:40:50.244Z,12.70
2023-04-29T21:43:20.388Z,12.93
2023-04-29T21:45:50.206Z,12.90
2023-04-29T21:48:20.295Z,12.93
2023-04-29T21:50:49.663Z,12.90
2023-04-29T21:53:20.005Z,13.87
2023-04-29T21:55:48.840Z,13.10
2023-04-29T21:58:18.390Z,13.03
2023-04-29T22:00:58.109Z,12.57
2023-04-29T22:03:27.012Z,13.20
2023-04-29T22:05:56.096Z,12.43
2023-04-29T22:08:26.370Z,13.20
2023-04-29T22:10:55.411Z,13.27
2023-04-29T22:13:24.122Z,13.10
2023-04-29T22:15:53.302Z,13.73
2023-04-29T22:18:22.164Z,13.20
2023-04-29T22:20:51.624Z,12.67
2023-04-29T22:23:22.681Z,14.20
2023-04-29T22:25:52.980Z,13.70
2023-04-29T22:28:21.729Z,13.67
2023-04-29T22:30:50.472Z,13.90
2023-04-29T22:33:19.165Z,14.40
2023-04-29T22:35:48.036Z,13.90
2023-04-29T22:38:16.834Z,13.87
2023-04-29T22:40:52.649Z,14.53
2023-04-29T22:43:21.548Z,13.33
2023-04-29T22:45:54.437Z,13.20
2023-04-29T22:48:26.667Z,14.27
2023-04-29T22:50:57.557Z,13.93
2023-04-29T22:53:26.834Z,13.60
2023-04-29T22:55:59.020Z,14.00
2023-04-29T22:58:28.876Z,14.10
2023-04-29T23:00:59.005Z,13.20
2023-04-29T23:03:28.600Z,13.27
2023-04-29T23:05:59.785Z,14.13
2023-04-29T23:08:29.240Z,13.50
2023-04-29T23:10:59.439Z,14.03
2023-04-29T23:13:28.348Z,14.00
2023-04-29T23:15:58.401Z,13.27
2023-04-29T23:18:27.215Z,13.43
2023-04-29T23:20:57.283Z,13.60
2023-04-29T23:23:25.990Z,13.67
2023-04-29T23:25:54.648Z,13.73
2023-04-29T23:28:25.609Z,14.27
2023-04-29T23:30:54.638Z,14.10
2023-04-29T23:33:23.385Z,14.50
2023-04-29T23:35:52.941Z,13.67
2023-04-29T23:38:21.818Z,14.00
2023-04-29T23:40:50.561Z,12.87
2023-04-29T23:43:20.429Z,13.17
2023-04-29T23:45:51.288Z,13.07
2023-04-29T23:48:20.009Z,14.53
2023-04-29T23:50:48.700Z,13.77
2023-04-29T23:53:17.363Z,14.00
2023-04-29T23:55:46.093Z,14.07
2023-04-29T23:58:14.841Z,14.60
